createdAt,value
2019-04-01T00:02:07.680Z,2.47
2019-04-01T00:04:36.081Z,2.67
2019-04-01T00:07:04.498Z,2.35
2019-04-01T00:09:32.906Z,2.30
2019-04-01T00:12:01.295Z,1.98
2019-04-01T00:14:29.725Z,2.00
2019-04-01T00:16:58.117Z,2.07
2019-04-01T00:19:26.530Z,2.03
2019-04-01T00:21:55.958Z,1.92
2019-04-01T00:24:24.368Z,2.02
2019-04-01T00:26:52.769Z,2.20
2019-04-01T00:29:21.441Z,1.70
2019-04-01T00:31:49.845Z,2.10
2019-04-01T00:34:18.250Z,2.40
2019-04-01T00:36:46.652Z,1.80
2019-04-01T00:39:15.135Z,1.57
2019-04-01T00:41:48.407Z,2.00
2019-04-01T00:44:16.823Z,1.82
2019-04-01T00:46:45.611Z,1.82
2019-04-01T00:49:14.059Z,2.08
2019-04-01T00:51:42.479Z,2.00
2019-04-01T00:54:10.876Z,1.87
2019-04-01T00:56:39.286Z,1.70
2019-04-01T00:59:07.723Z,1.60
2019-04-01T01:01:36.209Z,2.08
2019-04-01T01:04:04.673Z,2.00
2019-04-01T01:06:33.098Z,1.77
2019-04-01T01:09:01.511Z,1.70
2019-04-01T01:11:30.737Z,1.98
2019-04-01T01:13:59.385Z,1.72
2019-04-01T01:16:27.885Z,2.12
2019-04-01T01:18:56.304Z,2.08
2019-04-01T01:21:24.796Z,1.72
2019-04-01T01:23:53.642Z,1.60
2019-04-01T01:26:22.062Z,1.80
2019-04-01T01:28:50.444Z,2.15
2019-04-01T01:31:18.903Z,2.00
2019-04-01T01:33:47.284Z,1.60
2019-04-01T01:36:15.701Z,2.10
2019-04-01T01:38:44.100Z,2.05
2019-04-01T01:41:12.519Z,1.87
2019-04-01T01:43:40.929Z,1.73
2019-04-01T01:46:09.361Z,1.85
2019-04-01T01:48:37.767Z,2.20
2019-04-01T01:51:06.174Z,2.37
2019-04-01T01:53:34.585Z,2.55
2019-04-01T01:56:03.005Z,2.40
2019-04-01T01:58:32.302Z,2.10
2019-04-01T02:01:00.724Z,2.08
2019-04-01T02:03:29.162Z,2.20
2019-04-01T02:05:57.660Z,1.77
2019-04-01T02:08:45.418Z,1.92
2019-04-01T02:11:14.107Z,2.17
2019-04-01T02:13:42.534Z,2.33
2019-04-01T02:16:10.960Z,2.17
2019-04-01T02:18:39.647Z,2.12
2019-04-01T02:21:08.045Z,2.00
2019-04-01T02:23:36.519Z,2.23
2019-04-01T02:26:04.990Z,2.00
2019-04-01T02:28:33.402Z,2.17
2019-04-01T02:31:01.802Z,1.87
2019-04-01T02:33:30.218Z,1.90
2019-04-01T02:35:58.678Z,1.87
2019-04-01T02:38:27.094Z,1.73
2019-04-01T02:40:55.492Z,2.22
2019-04-01T02:43:23.934Z,2.22
2019-04-01T02:45:52.600Z,2.17
2019-04-01T02:48:21.024Z,2.50
2019-04-01T02:50:49.426Z,2.00
2019-04-01T02:53:17.849Z,2.30
2019-04-01T02:55:46.536Z,2.20
2019-04-01T02:58:14.933Z,2.40
2019-04-01T03:00:43.610Z,2.20
2019-04-01T03:03:12.374Z,2.13
2019-04-01T03:05:40.846Z,2.10
2019-04-01T03:08:09.271Z,2.33
2019-04-01T03:10:38.021Z,2.08
2019-04-01T03:13:06.445Z,2.25
2019-04-01T03:15:34.866Z,1.87
2019-04-01T03:18:03.687Z,2.08
2019-04-01T03:20:32.097Z,2.22
2019-04-01T03:23:00.505Z,2.00
2019-04-01T03:25:28.905Z,2.33
2019-04-01T03:27:57.319Z,2.38
2019-04-01T03:30:25.724Z,2.55
2019-04-01T03:32:54.188Z,2.27
2019-04-01T03:35:22.598Z,2.10
2019-04-01T03:37:51.016Z,2.20
2019-04-01T03:40:19.681Z,2.22
2019-04-01T03:42:48.091Z,2.37
2019-04-01T03:45:16.504Z,2.60
2019-04-01T03:47:44.939Z,2.30
2019-04-01T03:50:13.341Z,2.33
2019-04-01T03:52:41.734Z,2.65
2019-04-01T03:55:10.318Z,2.60
2019-04-01T03:57:38.705Z,2.50
2019-04-01T04:00:07.292Z,2.95
2019-04-01T04:02:35.674Z,2.67
2019-04-01T04:05:05.967Z,2.47
2019-04-01T04:07:34.435Z,2.23
2019-04-01T04:10:02.928Z,2.52
2019-04-01T04:12:31.320Z,2.67
2019-04-01T04:14:59.746Z,2.37
2019-04-01T04:17:28.432Z,2.50
2019-04-01T04:19:56.887Z,2.35
2019-04-01T04:22:25.312Z,2.90
2019-04-01T04:25:06.379Z,2.77
2019-04-01T04:27:34.866Z,2.73
2019-04-01T04:30:04.324Z,2.40
2019-04-01T04:32:32.972Z,2.25
2019-04-01T04:35:01.380Z,2.50
2019-04-01T04:37:29.777Z,2.50
2019-04-01T04:39:58.201Z,2.65
2019-04-01T04:42:26.838Z,2.20
2019-04-01T04:44:55.260Z,3.17
2019-04-01T04:47:23.666Z,2.47
2019-04-01T04:49:52.078Z,2.33
2019-04-01T04:52:20.482Z,2.60
2019-04-01T04:54:48.906Z,2.90
2019-04-01T04:57:20.232Z,3.22
2019-04-01T05:00:06.801Z,2.50
2019-04-01T05:02:35.254Z,3.00
2019-04-01T05:05:04.869Z,3.00
2019-04-01T05:07:33.612Z,2.90
2019-04-01T05:10:02.190Z,3.00
2019-04-01T05:12:30.877Z,2.95
2019-04-01T05:14:59.297Z,2.87
2019-04-01T05:17:27.695Z,3.35
2019-04-01T05:19:56.153Z,3.00
2019-04-01T05:22:25.747Z,3.15
2019-04-01T05:24:55.484Z,3.40
2019-04-01T05:27:26.194Z,3.75
2019-04-01T05:29:54.681Z,4.03
2019-04-01T05:32:25.093Z,3.42
2019-04-01T05:34:55.720Z,3.98
2019-04-01T05:37:24.110Z,3.67
2019-04-01T05:39:52.794Z,3.40
2019-04-01T05:42:21.259Z,3.25
2019-04-01T05:44:49.814Z,2.80
2019-04-01T05:47:20.024Z,3.37
2019-04-01T05:49:48.506Z,3.20
2019-04-01T05:52:16.910Z,3.30
2019-04-01T05:54:45.331Z,3.37
2019-04-01T05:57:14.474Z,3.45
2019-04-01T05:59:44.599Z,3.33
2019-04-01T06:02:13.150Z,3.40
2019-04-01T06:04:41.574Z,3.40
2019-04-01T06:07:10.003Z,3.20
2019-04-01T06:09:38.537Z,3.83
2019-04-01T06:12:07.044Z,3.20
2019-04-01T06:14:35.767Z,3.70
2019-04-01T06:17:04.462Z,3.62
2019-04-01T06:19:32.930Z,3.17
2019-04-01T06:22:01.392Z,3.85
2019-04-01T06:24:29.811Z,3.55
2019-04-01T06:26:58.399Z,3.40
2019-04-01T06:29:27.215Z,3.90
2019-04-01T06:31:55.686Z,3.37
2019-04-01T06:34:24.085Z,3.52
2019-04-01T06:36:52.508Z,3.52
2019-04-01T06:39:21.346Z,3.30
2019-04-01T06:41:49.785Z,3.30
2019-04-01T06:44:18.274Z,3.40
2019-04-01T06:46:46.763Z,3.62
2019-04-01T06:49:15.238Z,4.37
2019-04-01T06:51:43.653Z,3.80
2019-04-01T06:54:12.207Z,3.62
2019-04-01T06:56:40.895Z,3.47
2019-04-01T06:59:09.434Z,3.12
2019-04-01T07:01:39.018Z,3.58
2019-04-01T07:04:07.695Z,3.20
2019-04-01T07:06:36.126Z,3.02
2019-04-01T07:09:06.446Z,3.20
2019-04-01T07:11:35.106Z,3.40
2019-04-01T07:14:04.674Z,3.55
2019-04-01T07:16:33.105Z,3.63
2019-04-01T07:19:01.518Z,4.25
2019-04-01T07:21:30.174Z,3.33
2019-04-01T07:23:58.657Z,3.17
2019-04-01T07:26:27.088Z,3.00
2019-04-01T07:28:55.682Z,3.17
2019-04-01T07:31:24.156Z,3.67
2019-04-01T07:33:52.560Z,3.35
2019-04-01T07:36:21.013Z,3.75
2019-04-01T07:38:49.442Z,3.90
2019-04-01T07:41:17.857Z,3.60
2019-04-01T07:43:46.419Z,3.85
2019-04-01T07:46:15.218Z,3.67
2019-04-01T07:48:43.690Z,3.52
2019-04-01T07:51:12.177Z,3.47
2019-04-01T07:53:40.658Z,4.03
2019-04-01T07:56:09.266Z,3.70
2019-04-01T07:58:38.047Z,3.95
2019-04-01T08:01:06.535Z,4.12
2019-04-01T08:03:34.954Z,3.67
2019-04-01T08:06:03.722Z,4.47
2019-04-01T08:08:32.492Z,4.12
2019-04-01T08:11:00.972Z,4.80
2019-04-01T08:13:30.345Z,5.17
2019-04-01T08:15:58.776Z,4.55
2019-04-01T08:18:27.483Z,4.53
2019-04-01T08:20:58.458Z,4.30
2019-04-01T08:23:26.923Z,4.45
2019-04-01T08:25:55.330Z,4.87
2019-04-01T08:28:24.093Z,5.33
2019-04-01T08:30:52.557Z,4.80
2019-04-01T08:33:20.965Z,4.70
2019-04-01T08:35:49.385Z,5.10
2019-04-01T08:38:17.793Z,4.22
2019-04-01T08:40:46.220Z,5.10
2019-04-01T08:43:14.721Z,7.00
2019-04-01T08:45:43.130Z,5.57
2019-04-01T08:48:11.560Z,5.20
2019-04-01T08:50:39.959Z,5.45
2019-04-01T08:53:08.373Z,4.97
2019-04-01T08:55:37.434Z,4.25
2019-04-01T08:58:05.999Z,4.53
2019-04-01T09:00:34.469Z,4.75
2019-04-01T09:03:03.328Z,5.15
2019-04-01T09:05:31.752Z,5.83
2019-04-01T09:08:00.183Z,5.80
2019-04-01T09:10:28.845Z,5.50
2019-04-01T09:12:58.122Z,5.72
2019-04-01T09:15:26.539Z,6.37
2019-04-01T09:17:55.049Z,6.10
2019-04-01T09:20:23.461Z,6.37
2019-04-01T09:22:51.914Z,6.50
2019-04-01T09:25:20.371Z,6.30
2019-04-01T09:27:49.099Z,6.47
2019-04-01T09:30:18.778Z,7.22
2019-04-01T09:32:47.436Z,8.55
2019-04-01T09:35:15.850Z,7.55
2019-04-01T09:37:44.283Z,7.60
2019-04-01T09:40:13.671Z,7.05
2019-04-01T09:42:42.106Z,6.65
2019-04-01T09:45:10.846Z,7.70
2019-04-01T09:47:39.335Z,7.83
2019-04-01T09:50:08.283Z,7.42
2019-04-01T09:52:37.198Z,6.87
2019-04-01T09:55:06.524Z,7.62
2019-04-01T09:57:35.149Z,7.53
2019-04-01T10:00:05.869Z,7.33
2019-04-01T10:05:01.983Z,6.95
2019-04-01T10:07:30.418Z,6.85
2019-04-01T10:09:58.942Z,6.58
2019-04-01T10:12:27.365Z,6.15
2019-04-01T10:14:55.776Z,6.87
2019-04-01T10:17:24.191Z,7.35
2019-04-01T10:19:52.610Z,8.05
2019-04-01T10:22:21.089Z,7.37
2019-04-01T10:24:49.505Z,8.65
2019-04-01T10:27:17.998Z,8.43
2019-04-01T10:29:46.509Z,9.25
2019-04-01T10:32:14.947Z,8.85
2019-04-01T10:34:43.530Z,8.43
2019-04-01T10:37:11.965Z,9.05
2019-04-01T10:39:40.393Z,8.43
2019-04-01T10:42:08.796Z,9.20
2019-04-01T10:44:37.217Z,9.00
2019-04-01T10:47:05.695Z,8.68
2019-04-01T10:49:34.138Z,9.10
2019-04-01T10:52:08.500Z,8.25
2019-04-01T10:54:36.999Z,8.45
2019-04-01T10:57:05.453Z,8.75
2019-04-01T10:59:34.013Z,8.20
2019-04-01T11:02:02.442Z,9.18
2019-04-01T11:04:31.006Z,10.23
2019-04-01T11:06:59.420Z,9.25
2019-04-01T11:09:38.204Z,9.83
2019-04-01T11:11:58.180Z,9.88
2019-04-01T11:14:26.615Z,8.90
2019-04-01T11:16:55.071Z,9.53
2019-04-01T11:19:23.499Z,9.45
2019-04-01T11:21:51.911Z,9.63
2019-04-01T11:24:20.348Z,9.38
2019-04-01T11:26:48.742Z,9.68
2019-04-01T11:29:17.170Z,8.83
2019-04-01T11:31:46.206Z,8.45
2019-04-01T11:34:14.714Z,8.83
2019-04-01T11:36:43.451Z,9.48
2019-04-01T11:39:13.419Z,8.80
2019-04-01T11:41:41.945Z,9.13
2019-04-01T11:44:10.426Z,9.78
2019-04-01T11:46:38.975Z,10.63
2019-04-01T11:49:07.513Z,10.13
2019-04-01T11:51:39.833Z,10.50
2019-04-01T11:54:08.095Z,9.73
2019-04-01T11:56:36.551Z,8.50
2019-04-01T11:59:05.043Z,9.00
2019-04-01T12:01:36.661Z,8.65
2019-04-01T12:04:03.668Z,9.13
2019-04-01T12:06:32.080Z,8.50
2019-04-01T12:09:00.560Z,8.48
2019-04-01T12:11:28.982Z,8.33
2019-04-01T12:13:57.427Z,7.67
2019-04-01T12:16:25.886Z,8.83
2019-04-01T12:18:54.339Z,8.38
2019-04-01T12:21:22.746Z,8.13
2019-04-01T12:23:51.206Z,8.23
2019-04-01T12:26:19.614Z,8.15
2019-04-01T12:28:48.106Z,9.20
2019-04-01T12:31:16.594Z,9.30
2019-04-01T12:33:45.023Z,9.00
2019-04-01T12:36:13.433Z,8.75
2019-04-01T12:38:41.843Z,8.90
2019-04-01T12:41:10.273Z,8.25
2019-04-01T12:43:38.703Z,9.38
2019-04-01T12:46:07.758Z,8.68
2019-04-01T12:48:36.175Z,9.30
2019-04-01T12:51:05.087Z,9.75
2019-04-01T12:53:33.590Z,8.98
2019-04-01T12:56:02.088Z,9.48
2019-04-01T12:58:31.743Z,8.03
2019-04-01T13:01:01.229Z,8.70
2019-04-01T13:03:30.114Z,8.87
2019-04-01T13:05:58.583Z,8.58
2019-04-01T13:08:26.998Z,10.00
2019-04-01T13:10:56.648Z,9.95
2019-04-01T13:13:25.416Z,9.28
2019-04-01T13:15:53.959Z,8.48
2019-04-01T13:18:22.460Z,9.10
2019-04-01T13:20:51.939Z,8.65
2019-04-01T13:23:20.767Z,8.80
2019-04-01T13:25:49.182Z,9.88
2019-04-01T13:28:17.870Z,8.80
2019-04-01T13:30:47.076Z,8.93
2019-04-01T13:33:17.059Z,9.03
2019-04-01T13:35:45.568Z,9.03
2019-04-01T13:38:14.976Z,8.85
2019-04-01T13:40:44.421Z,9.05
2019-04-01T13:43:16.791Z,9.58
2019-04-01T13:45:43.500Z,9.23
2019-04-01T13:48:12.381Z,8.85
2019-04-01T13:50:40.807Z,9.48
2019-04-01T13:53:09.237Z,8.18
2019-04-01T13:55:38.281Z,7.58
2019-04-01T13:58:07.041Z,7.77
2019-04-01T14:00:35.532Z,7.93
2019-04-01T14:03:04.709Z,7.85
2019-04-01T14:05:33.167Z,7.85
2019-04-01T14:08:01.615Z,6.97
2019-04-01T14:10:30.102Z,7.25
2019-04-01T14:12:58.793Z,7.87
2019-04-01T14:15:27.212Z,8.33
2019-04-01T14:17:55.668Z,7.97
2019-04-01T14:20:24.203Z,7.45
2019-04-01T14:22:53.708Z,7.55
2019-04-01T14:25:22.543Z,8.30
2019-04-01T14:27:50.982Z,8.70
2019-04-01T14:30:19.390Z,9.18
2019-04-01T14:32:48.061Z,9.03
2019-04-01T14:35:16.468Z,8.90
2019-04-01T14:37:44.906Z,8.70
2019-04-01T14:40:13.662Z,7.50
2019-04-01T14:42:42.103Z,6.97
2019-04-01T14:45:10.972Z,7.58
2019-04-01T14:47:55.855Z,7.53
2019-04-01T14:50:10.333Z,9.60
2019-04-01T14:52:40.972Z,7.65
2019-04-01T14:55:10.151Z,7.92
2019-04-01T14:57:38.600Z,8.30
2019-04-01T15:00:09.411Z,7.12
2019-04-01T15:02:38.075Z,8.17
2019-04-01T15:05:06.638Z,8.20
2019-04-01T15:07:35.269Z,10.80
2019-04-01T15:10:05.324Z,8.75
2019-04-01T15:12:33.737Z,8.30
2019-04-01T15:15:03.973Z,8.98
2019-04-01T15:17:32.477Z,10.10
2019-04-01T15:20:01.021Z,10.82
2019-04-01T15:22:29.451Z,9.93
2019-04-01T15:24:58.811Z,11.50
2019-04-01T15:27:27.439Z,10.45
2019-04-01T15:29:55.876Z,10.85
2019-04-01T15:32:24.362Z,10.48
2019-04-01T15:34:53.059Z,10.82
2019-04-01T15:37:23.123Z,11.03
2019-04-01T15:39:51.671Z,11.03
2019-04-01T15:42:20.090Z,9.93
2019-04-01T15:44:48.519Z,10.40
2019-04-01T15:47:16.945Z,10.15
2019-04-01T15:49:45.419Z,11.40
2019-04-01T15:52:13.891Z,10.60
2019-04-01T15:54:42.391Z,9.60
2019-04-01T15:57:10.813Z,9.13
2019-04-01T15:59:39.231Z,10.68
2019-04-01T16:02:07.634Z,10.25
2019-04-01T16:04:39.893Z,11.77
2019-04-01T16:07:08.388Z,10.47
2019-04-01T16:09:37.131Z,11.40
2019-04-01T16:12:05.562Z,11.70
2019-04-01T16:14:33.977Z,12.05
2019-04-01T16:17:02.673Z,10.88
2019-04-01T16:19:31.069Z,11.33
2019-04-01T16:21:59.691Z,10.20
2019-04-01T16:24:28.100Z,10.75
2019-04-01T16:26:56.510Z,10.63
2019-04-01T16:29:24.923Z,10.25
2019-04-01T16:31:55.335Z,9.20
2019-04-01T16:34:23.484Z,9.80
2019-04-01T16:36:51.879Z,9.60
2019-04-01T16:39:20.342Z,9.75
2019-04-01T16:41:50.585Z,9.38
2019-04-01T16:44:19.084Z,9.73
2019-04-01T16:46:47.710Z,8.83
2019-04-01T16:49:16.281Z,8.93
2019-04-01T16:51:44.743Z,9.15
2019-04-01T16:54:13.170Z,7.92
2019-04-01T16:56:41.597Z,7.85
2019-04-01T16:59:10.016Z,7.60
2019-04-01T17:01:41.407Z,7.62
2019-04-01T17:04:08.659Z,7.40
2019-04-01T17:06:37.082Z,7.40
2019-04-01T17:09:07.864Z,8.08
2019-04-01T17:11:36.478Z,9.73
2019-04-01T17:14:05.083Z,9.30
2019-04-01T17:16:33.576Z,9.48
2019-04-01T17:19:01.989Z,9.75
2019-04-01T17:21:30.405Z,8.33
2019-04-01T17:23:59.479Z,8.83
2019-04-01T17:26:28.194Z,9.45
2019-04-01T17:28:56.694Z,9.03
2019-04-01T17:31:25.532Z,9.63
2019-04-01T17:33:54.173Z,9.23
2019-04-01T17:36:22.711Z,9.95
2019-04-01T17:38:51.334Z,10.00
2019-04-01T17:41:19.850Z,9.80
2019-04-01T17:43:48.486Z,10.23
2019-04-01T17:46:17.288Z,11.10
2019-04-01T17:48:45.796Z,10.65
2019-04-01T17:51:14.237Z,10.43
2019-04-01T17:53:43.351Z,10.42
2019-04-01T17:56:11.806Z,9.18
2019-04-01T17:58:40.407Z,10.18
2019-04-01T18:01:10.345Z,9.78
2019-04-01T18:03:38.916Z,10.68
2019-04-01T18:06:07.445Z,10.93
2019-04-01T18:08:35.922Z,10.15
2019-04-01T18:11:04.560Z,10.58
2019-04-01T18:13:32.991Z,9.75
2019-04-01T18:16:01.702Z,10.63
2019-04-01T18:18:33.785Z,11.95
2019-04-01T18:21:00.604Z,10.78
2019-04-01T18:23:29.205Z,11.25
2019-04-01T18:25:57.817Z,10.13
2019-04-01T18:28:26.483Z,11.68
2019-04-01T18:30:55.132Z,10.45
2019-04-01T18:33:23.767Z,11.88
2019-04-01T18:35:52.262Z,11.20
2019-04-01T18:38:20.831Z,10.78
2019-04-01T18:40:49.410Z,10.95
2019-04-01T18:43:17.997Z,11.12
2019-04-01T18:45:46.542Z,11.97
2019-04-01T18:48:15.664Z,10.80
2019-04-01T18:50:44.575Z,10.95
2019-04-01T18:53:18.821Z,11.57
2019-04-01T18:55:47.230Z,11.40
2019-04-01T18:58:15.644Z,11.78
2019-04-01T19:00:44.703Z,10.20
2019-04-01T19:03:13.125Z,11.25
2019-04-01T19:05:41.538Z,11.63
2019-04-01T19:08:10.037Z,11.20
2019-04-01T19:10:39.468Z,11.30
2019-04-01T19:13:12.149Z,12.40
2019-04-01T19:15:41.979Z,10.60
2019-04-01T19:18:08.957Z,12.60
2019-04-01T19:20:37.396Z,12.03
2019-04-01T19:23:05.810Z,13.80
2019-04-01T19:25:34.477Z,12.82
2019-04-01T19:28:02.906Z,13.40
2019-04-01T19:30:31.586Z,12.65
2019-04-01T19:33:00.054Z,13.25
2019-04-01T19:35:28.478Z,12.45
2019-04-01T19:37:56.935Z,12.55
2019-04-01T19:40:25.382Z,12.23
2019-04-01T19:42:54.158Z,12.18
2019-04-01T19:45:22.633Z,13.25
2019-04-01T19:47:51.150Z,13.90
2019-04-01T19:50:21.304Z,11.43
2019-04-01T19:52:49.751Z,12.45
2019-04-01T19:55:18.177Z,11.83
2019-04-01T19:57:46.606Z,12.07
2019-04-01T20:00:27.041Z,12.10
2019-04-01T20:02:45.925Z,11.83
2019-04-01T20:05:15.190Z,10.52
2019-04-01T20:07:44.289Z,11.10
2019-04-01T20:10:13.471Z,10.18
2019-04-01T20:12:41.903Z,11.10
2019-04-01T20:15:12.201Z,10.78
2019-04-01T20:17:40.967Z,11.23
2019-04-01T20:20:09.940Z,10.80
2019-04-01T20:22:38.369Z,10.00
2019-04-01T20:25:08.126Z,10.50
2019-04-01T20:27:36.624Z,10.53
2019-04-01T20:30:09.635Z,10.93
2019-04-01T20:32:38.222Z,10.35
2019-04-01T20:35:12.875Z,9.63
2019-04-01T20:37:38.870Z,10.45
2019-04-01T20:40:08.256Z,9.55
2019-04-01T20:42:36.663Z,9.48
2019-04-01T20:45:11.090Z,8.95
2019-04-01T20:47:39.770Z,9.35
2019-04-01T20:50:11.753Z,9.33
2019-04-01T20:52:40.215Z,8.60
2019-04-01T20:55:08.867Z,8.50
2019-04-01T20:57:37.265Z,9.00
2019-04-01T21:00:09.256Z,9.65
2019-04-01T21:02:37.897Z,8.63
2019-04-01T21:05:08.976Z,10.68
2019-04-01T21:07:37.404Z,10.05
2019-04-01T21:10:07.542Z,10.32
2019-04-01T21:12:36.154Z,9.40
2019-04-01T21:15:07.014Z,10.90
2019-04-01T21:17:35.411Z,10.97
2019-04-01T21:20:07.752Z,9.85
2019-04-01T21:22:36.890Z,9.53
2019-04-01T21:25:07.117Z,10.35
2019-04-01T21:27:35.519Z,9.43
2019-04-01T21:30:06.861Z,9.53
2019-04-01T21:32:35.274Z,9.33
2019-04-01T21:35:04.231Z,9.05
2019-04-01T21:37:32.673Z,9.35
2019-04-01T21:40:01.089Z,9.43
2019-04-01T21:42:29.502Z,9.50
2019-04-01T21:44:57.927Z,9.38
2019-04-01T21:47:26.333Z,10.05
2019-04-01T21:49:54.771Z,9.88
2019-04-01T21:52:23.204Z,10.25
2019-04-01T21:54:51.627Z,10.55
2019-04-01T21:57:20.604Z,10.40
2019-04-01T21:59:49.648Z,10.68
2019-04-01T22:02:18.060Z,10.80
2019-04-01T22:04:46.799Z,9.63
2019-04-01T22:07:15.227Z,10.15
2019-04-01T22:09:43.672Z,9.63
2019-04-01T22:12:12.663Z,10.18
2019-04-01T22:14:41.090Z,10.70
2019-04-01T22:17:09.584Z,10.80
2019-04-01T22:19:38.006Z,10.63
2019-04-01T22:22:06.416Z,10.68
2019-04-01T22:24:35.775Z,10.70
2019-04-01T22:27:04.209Z,11.40
2019-04-01T22:29:32.660Z,9.75
2019-04-01T22:32:01.133Z,10.13
2019-04-01T22:34:29.558Z,11.40
2019-04-01T22:36:57.983Z,10.45
2019-04-01T22:39:27.302Z,10.70
2019-04-01T22:41:58.245Z,10.30
2019-04-01T22:44:27.238Z,10.60
2019-04-01T22:46:55.761Z,9.08
2019-04-01T22:49:24.202Z,10.00
2019-04-01T22:51:52.621Z,9.45
2019-04-01T22:54:21.024Z,10.75
2019-04-01T22:56:49.461Z,10.63
2019-04-01T22:59:17.883Z,9.35
2019-04-01T23:01:47.096Z,9.72
2019-04-01T23:04:15.516Z,10.25
2019-04-01T23:06:44.315Z,8.65
2019-04-01T23:09:12.822Z,10.60
2019-04-01T23:11:41.244Z,9.22
2019-04-01T23:14:09.728Z,9.83
2019-04-01T23:16:38.147Z,10.00
2019-04-01T23:19:06.586Z,9.78
2019-04-01T23:21:35.339Z,9.83
2019-04-01T23:24:03.922Z,8.98
2019-04-01T23:26:32.357Z,9.15
2019-04-01T23:29:00.774Z,9.53
2019-04-01T23:31:29.206Z,8.88
2019-04-01T23:33:57.693Z,9.17
2019-04-01T23:36:26.111Z,9.28
2019-04-01T23:38:54.525Z,9.40
2019-04-01T23:41:22.969Z,9.88
2019-04-01T23:43:51.390Z,9.43
2019-04-01T23:46:19.843Z,10.08
2019-04-01T23:48:49.002Z,8.98
2019-04-01T23:51:17.665Z,9.78
2019-04-01T23:53:46.065Z,9.53
2019-04-01T23:56:14.475Z,9.43
2019-04-01T23:58:43.228Z,9.28
